Time;durP1;ratioP1;P1;durP2;ratioP2;P2;SDS_P1;SDS_P2;PMS_P1;PMS_P2;Temp;Humidity;BMP_temperature;BMP_pressure;BME280_temperature;BME280_humidity;BME280_pressure;Samples;Min_cycle;Max_cycle;Signal;HPM_P1;HPM_P2
2023/09/01 00:02:25;;;;;;;3.38;2.70;;;11.70;99.90;;;;;;5112057;27;20039;-64
2023/09/01 00:04:50;;;;;;;2.67;2.45;;;11.60;99.90;;;;;;5116837;27;20044;-64
2023/09/01 00:07:16;;;;;;;4.72;2.15;;;11.60;99.90;;;;;;5114046;27;20362;-64
2023/09/01 00:09:42;;;;;;;3.53;2.10;;;11.60;99.90;;;;;;5127378;27;20055;-63
2023/09/01 00:12:07;;;;;;;3.75;2.65;;;11.60;99.90;;;;;;5129117;27;20102;-63
2023/09/01 00:14:33;;;;;;;4.28;2.40;;;11.60;99.90;;;;;;5125157;27;20434;-63
2023/09/01 00:16:59;;;;;;;4.85;2.28;;;11.60;99.90;;;;;;5131519;27;20034;-63
2023/09/01 00:19:24;;;;;;;3.65;2.55;;;11.70;99.90;;;;;;5117125;27;20047;-64
2023/09/01 00:21:50;;;;;;;6.93;2.65;;;11.60;99.90;;;;;;5136243;27;20030;-63
2023/09/01 00:24:16;;;;;;;9.27;2.70;;;11.60;99.90;;;;;;5123945;27;20126;-63
2023/09/01 00:26:41;;;;;;;4.57;2.45;;;11.60;99.90;;;;;;5121456;27;20116;-64
2023/09/01 00:29:07;;;;;;;4.40;2.50;;;11.70;99.90;;;;;;5125758;27;20035;-64
2023/09/01 00:31:33;;;;;;;4.63;2.45;;;11.70;99.90;;;;;;5119508;27;20031;-64
2023/09/01 00:33:59;;;;;;;4.60;2.80;;;11.70;99.90;;;;;;5132555;27;20066;-64
2023/09/01 00:36:25;;;;;;;5.13;2.60;;;11.60;99.90;;;;;;5121609;27;20078;-63
2023/09/01 00:38:50;;;;;;;5.03;2.97;;;11.60;99.90;;;;;;5113319;27;20039;-63
2023/09/01 00:41:16;;;;;;;2.70;2.20;;;11.70;99.90;;;;;;5122455;27;20035;-63
2023/09/01 00:43:41;;;;;;;2.17;1.70;;;11.70;99.90;;;;;;5125454;27;20035;-63
2023/09/01 00:46:07;;;;;;;2.53;1.73;;;11.60;99.90;;;;;;5152185;27;20039;-63
2023/09/01 00:48:33;;;;;;;3.10;2.10;;;11.60;99.90;;;;;;5123327;27;20050;-63
2023/09/01 00:50:59;;;;;;;2.95;1.90;;;11.60;99.90;;;;;;5115581;27;20442;-63
2023/09/01 00:53:25;;;;;;;3.33;2.10;;;11.60;99.90;;;;;;5129296;27;20489;-63
2023/09/01 00:55:57;;;;;;;2.13;1.70;;;11.60;99.90;;;;;;5123834;27;20046;-64
2023/09/01 00:58:25;;;;;;;2.15;1.80;;;11.60;99.90;;;;;;5113919;27;20081;-63
2023/09/01 01:00:52;;;;;;;3.90;2.58;;;11.60;99.90;;;;;;5119767;27;20042;-63
2023/09/01 01:03:19;;;;;;;3.13;2.60;;;11.60;99.90;;;;;;5125121;27;20095;-64
2023/09/01 01:05:56;;;;;;;3.65;2.30;;;11.60;99.90;;;;;;5132398;27;20046;-63
2023/09/01 01:08:24;;;;;;;3.53;2.30;;;11.60;99.90;;;;;;5114548;27;20556;-63
2023/09/01 01:11:09;;;;;;;3.58;2.40;;;11.50;99.90;;;;;;5114913;27;20057;-63
2023/09/01 01:13:38;;;;;;;4.80;2.25;;;11.50;99.90;;;;;;5136878;27;20117;-64
2023/09/01 01:16:05;;;;;;;3.45;2.35;;;11.50;99.90;;;;;;5118831;27;20035;-64
2023/09/01 01:18:35;;;;;;;4.88;2.90;;;11.50;99.90;;;;;;5108798;27;20137;-64
2023/09/01 01:21:11;;;;;;;4.18;2.63;;;11.40;99.90;;;;;;5116908;27;20027;-63
2023/09/01 01:23:38;;;;;;;4.70;2.85;;;11.50;99.90;;;;;;5125361;27;20034;-63
2023/09/01 01:26:05;;;;;;;5.57;2.85;;;11.50;99.90;;;;;;5130538;27;20043;-64
2023/09/01 01:28:30;;;;;;;5.15;2.83;;;11.50;99.90;;;;;;5127216;27;20052;-64
2023/09/01 01:30:56;;;;;;;4.82;2.83;;;11.50;99.90;;;;;;5135518;27;20034;-63
2023/09/01 01:33:53;;;;;;;4.22;2.72;;;11.50;99.90;;;;;;5123762;27;20076;-64
2023/09/01 01:36:40;;;;;;;3.88;2.40;;;11.50;99.90;;;;;;5117271;27;20110;-64
2023/09/01 01:39:09;;;;;;;4.13;2.83;;;11.50;99.90;;;;;;5152426;27;20051;-63
2023/09/01 01:41:59;;;;;;;4.25;2.80;;;11.50;99.90;;;;;;5115363;27;20516;-63
2023/09/01 01:44:29;;;;;;;6.25;2.88;;;11.50;99.90;;;;;;5134711;27;20049;-63
2023/09/01 01:46:56;;;;;;;3.92;2.47;;;11.50;99.90;;;;;;5119539;27;20089;-64
2023/09/01 01:49:21;;;;;;;5.80;2.60;;;11.50;99.90;;;;;;5143949;27;20031;-63
2023/09/01 01:51:47;;;;;;;4.63;3.00;;;11.50;99.90;;;;;;5101286;27;20042;-63
2023/09/01 01:54:13;;;;;;;4.00;3.05;;;11.50;99.90;;;;;;5147404;27;20030;-64
2023/09/01 01:56:38;;;;;;;4.13;2.92;;;11.40;99.90;;;;;;5135629;27;20031;-64
2023/09/01 01:59:04;;;;;;;4.85;3.10;;;11.50;99.90;;;;;;5116044;27;20137;-63
2023/09/01 02:01:31;;;;;;;4.28;3.00;;;11.50;99.90;;;;;;5109587;27;20190;-63
2023/09/01 02:03:57;;;;;;;5.68;3.00;;;11.50;99.90;;;;;;5135309;27;20069;-64
2023/09/01 02:06:23;;;;;;;3.85;2.83;;;11.60;99.90;;;;;;5136819;27;20035;-63
2023/09/01 02:08:49;;;;;;;6.25;2.85;;;11.60;99.90;;;;;;5128347;27;20033;-64
2023/09/01 02:11:14;;;;;;;6.25;3.28;;;11.60;99.90;;;;;;5105527;27;20079;-63
2023/09/01 02:13:41;;;;;;;6.18;3.35;;;11.60;99.90;;;;;;5133294;27;20123;-63
2023/09/01 02:16:07;;;;;;;3.40;2.85;;;11.60;99.90;;;;;;5117750;27;20478;-63
2023/09/01 02:18:33;;;;;;;5.45;2.88;;;11.60;99.90;;;;;;5098631;27;20193;-63
2023/09/01 02:20:59;;;;;;;4.72;3.40;;;11.60;99.90;;;;;;5121369;27;20066;-63
2023/09/01 02:23:25;;;;;;;5.18;3.17;;;11.60;99.90;;;;;;5118705;27;20135;-63
2023/09/01 02:25:51;;;;;;;4.47;3.35;;;11.60;99.90;;;;;;5125922;27;20426;-63
2023/09/01 02:28:16;;;;;;;5.20;3.28;;;11.60;99.90;;;;;;5134016;27;20035;-63
2023/09/01 02:30:42;;;;;;;5.75;3.35;;;11.60;99.90;;;;;;5105222;27;20039;-63
2023/09/01 02:33:08;;;;;;;5.32;3.03;;;11.60;99.90;;;;;;5132569;27;20532;-64
2023/09/01 02:35:41;;;;;;;3.85;3.30;;;11.60;99.90;;;;;;5120229;27;20110;-64
2023/09/01 02:38:06;;;;;;;7.18;3.17;;;11.60;99.90;;;;;;5117075;27;20579;-65
2023/09/01 02:40:32;;;;;;;5.45;2.95;;;11.60;99.90;;;;;;5118291;27;20114;-63
2023/09/01 02:42:58;;;;;;;6.10;3.60;;;11.60;99.90;;;;;;5124355;27;20031;-63
2023/09/01 02:45:23;;;;;;;4.13;3.05;;;11.60;99.90;;;;;;5122656;27;20073;-63
2023/09/01 02:47:49;;;;;;;5.60;3.10;;;11.60;99.90;;;;;;5133060;27;20039;-62
2023/09/01 02:50:15;;;;;;;5.47;3.88;;;11.60;99.90;;;;;;5122788;27;20501;-64
2023/09/01 02:52:41;;;;;;;5.90;3.30;;;11.50;99.90;;;;;;5137070;27;20485;-64
2023/09/01 02:55:07;;;;;;;4.72;3.40;;;11.50;99.90;;;;;;5130363;27;20034;-64
2023/09/01 02:57:32;;;;;;;8.60;3.80;;;11.50;99.90;;;;;;5124189;27;20031;-63
2023/09/01 02:59:58;;;;;;;5.45;4.03;;;11.50;99.90;;;;;;5125525;27;20037;-64
2023/09/01 03:02:24;;;;;;;7.13;4.10;;;11.40;99.90;;;;;;5122382;27;20088;-64
2023/09/01 03:04:52;;;;;;;4.80;3.30;;;11.40;99.90;;;;;;5104918;27;20039;-64
2023/09/01 03:07:18;;;;;;;6.22;3.80;;;11.40;99.90;;;;;;5145215;27;20055;-63
2023/09/01 03:09:44;;;;;;;5.05;3.47;;;11.40;99.90;;;;;;5144343;27;20039;-64
2023/09/01 03:12:09;;;;;;;4.63;3.30;;;11.30;99.90;;;;;;5106080;27;20533;-62
2023/09/01 03:14:35;;;;;;;5.28;3.35;;;11.40;99.90;;;;;;5149682;27;20042;-62
2023/09/01 03:17:01;;;;;;;4.95;3.58;;;11.40;99.90;;;;;;5121844;27;20046;-63
2023/09/01 03:19:27;;;;;;;4.30;3.70;;;11.40;99.90;;;;;;5138402;27;20126;-64
2023/09/01 03:21:52;;;;;;;4.68;4.07;;;11.40;99.90;;;;;;5105784;27;20122;-64
2023/09/01 03:24:18;;;;;;;5.90;3.70;;;11.30;99.90;;;;;;5134417;27;20434;-63
2023/09/01 03:26:44;;;;;;;3.70;3.10;;;11.40;99.90;;;;;;5139350;27;20039;-63
2023/09/01 03:29:09;;;;;;;5.32;3.63;;;11.30;99.90;;;;;;5115904;27;20074;-63
2023/09/01 03:31:35;;;;;;;5.18;3.53;;;11.30;99.90;;;;;;5124784;27;20383;-64
2023/09/01 03:34:01;;;;;;;4.78;3.70;;;11.30;99.90;;;;;;5115352;27;20052;-64
2023/09/01 03:36:26;;;;;;;4.88;3.40;;;11.20;99.90;;;;;;5122874;27;20051;-65
2023/09/01 03:38:54;;;;;;;4.85;3.20;;;11.20;99.90;;;;;;5123875;27;20091;-63
2023/09/01 03:41:20;;;;;;;5.50;3.72;;;11.20;99.90;;;;;;5124113;27;20637;-64
2023/09/01 03:43:46;;;;;;;4.22;3.28;;;11.20;99.90;;;;;;5136062;27;20109;-63
2023/09/01 03:46:11;;;;;;;3.90;3.05;;;11.20;99.90;;;;;;5116526;27;20047;-65
2023/09/01 03:48:37;;;;;;;5.63;3.83;;;11.10;99.90;;;;;;5129038;27;20043;-63
2023/09/01 03:51:14;;;;;;;5.90;2.92;;;11.10;99.90;;;;;;5118180;27;20027;-63
2023/09/01 03:53:40;;;;;;;4.88;3.15;;;11.10;99.90;;;;;;5131608;27;20396;-64
2023/09/01 03:56:14;;;;;;;3.72;3.10;;;11.10;99.90;;;;;;5107824;27;20035;-63
2023/09/01 03:58:40;;;;;;;4.13;3.05;;;11.00;99.90;;;;;;5107384;27;20050;-64
2023/09/01 04:01:08;;;;;;;3.58;3.25;;;11.00;99.90;;;;;;5105199;27;20122;-64
2023/09/01 04:03:38;;;;;;;7.18;3.60;;;11.00;99.90;;;;;;5134549;27;20034;-64
2023/09/01 04:06:05;;;;;;;4.07;3.17;;;11.00;99.90;;;;;;5113385;27;20046;-63
2023/09/01 04:08:32;;;;;;;3.50;3.20;;;11.00;99.90;;;;;;5133897;27;20035;-64
2023/09/01 04:10:58;;;;;;;5.18;3.10;;;11.00;99.90;;;;;;5130609;27;20047;-63
2023/09/01 04:13:23;;;;;;;3.38;2.83;;;11.00;99.90;;;;;;5147472;27;20050;-64
2023/09/01 04:15:51;;;;;;;6.05;3.03;;;11.00;99.90;;;;;;5134050;27;20050;-64
2023/09/01 04:18:17;;;;;;;7.63;3.30;;;10.90;99.90;;;;;;5118471;27;20035;-64
2023/09/01 04:20:49;;;;;;;5.30;3.83;;;10.90;99.90;;;;;;5113485;27;20458;-63
2023/09/01 04:23:15;;;;;;;4.93;3.58;;;10.90;99.90;;;;;;5116368;27;20080;-64
2023/09/01 04:25:43;;;;;;;7.53;3.90;;;10.90;99.90;;;;;;5141082;27;20043;-63
2023/09/01 04:28:09;;;;;;;4.95;3.88;;;10.90;99.90;;;;;;5120640;27;20035;-64
2023/09/01 04:30:36;;;;;;;7.15;3.97;;;10.90;99.90;;;;;;5152822;27;20443;-63
2023/09/01 04:33:04;;;;;;;5.40;4.15;;;10.90;99.90;;;;;;5124114;27;20066;-63
2023/09/01 04:35:29;;;;;;;6.05;3.75;;;10.90;99.90;;;;;;5122755;27;20053;-63
2023/09/01 04:37:55;;;;;;;5.20;3.88;;;10.80;99.90;;;;;;5152520;27;20035;-64
2023/09/01 04:40:21;;;;;;;6.82;3.97;;;10.80;99.90;;;;;;5109935;27;20043;-64
2023/09/01 04:42:46;;;;;;;7.20;4.05;;;10.80;99.90;;;;;;5122247;27;20038;-63
2023/09/01 04:45:12;;;;;;;6.82;4.13;;;10.70;99.90;;;;;;5132407;27;20049;-64
2023/09/01 04:47:37;;;;;;;4.50;3.70;;;10.70;99.90;;;;;;5121618;27;20042;-63
2023/09/01 04:50:03;;;;;;;5.97;3.88;;;10.80;99.90;;;;;;5123511;27;20042;-64
2023/09/01 04:52:29;;;;;;;7.97;4.15;;;10.80;99.90;;;;;;5124317;27;20038;-64
2023/09/01 04:54:55;;;;;;;6.18;4.10;;;10.80;99.90;;;;;;5150742;27;20041;-63
2023/09/01 04:57:20;;;;;;;4.75;3.90;;;10.80;99.90;;;;;;5130076;27;20404;-63
2023/09/01 04:59:48;;;;;;;6.00;4.63;;;10.80;99.90;;;;;;5142247;27;20480;-64
2023/09/01 05:02:14;;;;;;;6.90;4.60;;;10.80;99.90;;;;;;5150519;27;20042;-63
2023/09/01 05:04:39;;;;;;;6.78;3.95;;;10.80;99.90;;;;;;5143453;27;20035;-64
2023/09/01 05:07:05;;;;;;;5.60;4.50;;;10.90;99.90;;;;;;5130194;27;20087;-64
2023/09/01 05:09:31;;;;;;;5.50;4.28;;;10.90;99.90;;;;;;5145656;27;20043;-64
2023/09/01 05:11:56;;;;;;;5.35;4.22;;;10.90;99.90;;;;;;5133653;27;20123;-64
2023/09/01 05:14:22;;;;;;;5.93;4.50;;;11.00;99.90;;;;;;5122574;27;20039;-63
2023/09/01 05:16:48;;;;;;;5.50;4.40;;;11.00;99.90;;;;;;5119788;27;20467;-72
2023/09/01 05:19:14;;;;;;;6.78;4.25;;;11.00;99.90;;;;;;5130455;27;20393;-63
2023/09/01 05:21:40;;;;;;;4.53;3.97;;;11.10;99.90;;;;;;5113799;27;20118;-64
2023/09/01 05:24:06;;;;;;;5.88;4.10;;;11.10;99.90;;;;;;5121748;27;20437;-64
2023/09/01 05:26:32;;;;;;;4.45;3.70;;;11.10;99.90;;;;;;5122220;27;20039;-63
2023/09/01 05:28:58;;;;;;;4.40;3.78;;;11.10;99.90;;;;;;5129990;27;20071;-63
2023/09/01 05:31:23;;;;;;;4.88;3.55;;;11.10;99.90;;;;;;5125157;27;20038;-64
2023/09/01 05:33:49;;;;;;;6.35;4.20;;;11.10;99.90;;;;;;5126097;27;20567;-64
2023/09/01 05:36:14;;;;;;;4.65;4.20;;;11.20;99.90;;;;;;5119472;27;20545;-64
2023/09/01 05:38:40;;;;;;;4.68;3.97;;;11.20;99.90;;;;;;5118300;27;20045;-64
2023/09/01 05:41:06;;;;;;;5.22;4.10;;;11.20;99.90;;;;;;5132676;27;20371;-66
2023/09/01 05:43:32;;;;;;;5.03;3.92;;;11.20;99.90;;;;;;5126065;27;20046;-66
2023/09/01 05:45:58;;;;;;;4.70;4.07;;;11.30;99.90;;;;;;5112595;28;20489;-63
2023/09/01 05:48:25;;;;;;;7.47;4.60;;;11.30;99.90;;;;;;5115429;27;20046;-66
2023/09/01 05:50:50;;;;;;;6.43;5.30;;;11.40;99.90;;;;;;5114317;27;20087;-66
2023/09/01 05:53:16;;;;;;;6.30;5.20;;;11.50;99.90;;;;;;5115823;27;20118;-64
2023/09/01 05:55:42;;;;;;;11.63;7.22;;;11.60;99.90;;;;;;5112788;27;20034;-66
2023/09/01 05:58:07;;;;;;;12.15;9.55;;;11.60;99.90;;;;;;5113160;27;20039;-66
2023/09/01 06:00:33;;;;;;;13.05;10.70;;;11.60;99.90;;;;;;5114385;27;20050;-67
2023/09/01 06:02:59;;;;;;;11.85;10.32;;;11.70;99.90;;;;;;5133081;27;20055;-67
2023/09/01 06:05:24;;;;;;;13.52;12.02;;;11.80;99.90;;;;;;5095713;27;20043;-68
2023/09/01 06:07:50;;;;;;;16.10;11.48;;;11.90;99.90;;;;;;5112348;27;20039;-65
2023/09/01 06:10:16;;;;;;;13.18;11.57;;;12.00;99.90;;;;;;5122376;28;20058;-65
2023/09/01 06:12:42;;;;;;;14.43;11.80;;;12.00;99.90;;;;;;5104918;28;20110;-65
2023/09/01 06:15:08;;;;;;;14.23;12.73;;;12.10;99.90;;;;;;5107995;28;20028;-64
2023/09/01 06:17:34;;;;;;;13.23;11.85;;;12.20;99.90;;;;;;5108576;28;20039;-67
2023/09/01 06:20:00;;;;;;;17.05;12.40;;;12.20;99.90;;;;;;5112489;28;20106;-65
2023/09/01 06:22:26;;;;;;;18.70;12.60;;;12.30;99.90;;;;;;5107851;28;20088;-68
2023/09/01 06:24:52;;;;;;;14.93;13.32;;;12.40;99.90;;;;;;5110242;27;20416;-66
2023/09/01 06:27:18;;;;;;;14.90;12.48;;;12.40;99.90;;;;;;5111053;28;20531;-65
2023/09/01 06:29:43;;;;;;;17.15;13.23;;;12.50;99.90;;;;;;5113599;28;20387;-66
2023/09/01 06:32:11;;;;;;;13.90;12.30;;;12.60;99.90;;;;;;5110798;27;20036;-66
2023/09/01 06:34:38;;;;;;;17.30;13.48;;;12.60;99.90;;;;;;5105849;27;20048;-65
2023/09/01 06:37:03;;;;;;;15.90;13.13;;;12.70;99.90;;;;;;5116831;27;20035;-66
2023/09/01 06:39:29;;;;;;;18.23;13.25;;;12.70;99.90;;;;;;5132378;27;20061;-65
2023/09/01 06:41:55;;;;;;;19.42;13.57;;;12.80;99.90;;;;;;5114714;27;20112;-65
2023/09/01 06:44:20;;;;;;;15.05;12.57;;;12.90;99.90;;;;;;5109780;28;20528;-66
2023/09/01 06:46:46;;;;;;;15.90;13.35;;;13.00;99.90;;;;;;5089904;28;20062;-65
2023/09/01 06:49:12;;;;;;;15.02;13.35;;;13.10;99.90;;;;;;5112123;28;20471;-66
2023/09/01 06:51:38;;;;;;;18.33;13.43;;;13.20;99.90;;;;;;5107526;28;20036;-65
2023/09/01 06:54:03;;;;;;;15.48;12.98;;;13.30;99.90;;;;;;5113110;28;20042;-65
2023/09/01 06:56:29;;;;;;;16.85;13.10;;;13.40;99.90;;;;;;5108712;28;20386;-67
2023/09/01 06:58:55;;;;;;;14.32;11.98;;;13.50;99.90;;;;;;5108316;28;20042;-65
2023/09/01 07:01:21;;;;;;;16.00;12.88;;;13.50;99.90;;;;;;5111578;28;20032;-65
2023/09/01 07:03:47;;;;;;;15.18;12.48;;;13.60;99.90;;;;;;5109179;28;20067;-68
2023/09/01 07:06:13;;;;;;;14.75;12.15;;;13.60;99.90;;;;;;5108005;28;20329;-66
2023/09/01 07:08:39;;;;;;;16.25;13.00;;;13.70;99.90;;;;;;5123516;27;20531;-65
2023/09/01 07:11:09;;;;;;;14.70;13.23;;;13.70;99.90;;;;;;5108953;28;20048;-67
2023/09/01 07:13:35;;;;;;;14.95;12.35;;;13.70;99.90;;;;;;5111505;27;20092;-67
2023/09/01 07:16:00;;;;;;;14.40;12.80;;;13.80;99.90;;;;;;5111169;28;20035;-66
2023/09/01 07:18:26;;;;;;;18.48;13.15;;;13.90;99.90;;;;;;5112301;27;20032;-65
2023/09/01 07:20:57;;;;;;;19.92;14.15;;;13.90;99.90;;;;;;5118692;27;20039;-66
2023/09/01 07:23:23;;;;;;;15.20;12.30;;;14.00;99.90;;;;;;5120543;27;20038;-64
2023/09/01 07:25:49;;;;;;;15.50;13.10;;;14.00;99.90;;;;;;5096093;28;20039;-67
2023/09/01 07:28:15;;;;;;;18.35;13.60;;;14.10;99.90;;;;;;5127665;27;20118;-66
2023/09/01 07:30:40;;;;;;;15.70;13.40;;;14.10;99.90;;;;;;5122969;27;20043;-66
2023/09/01 07:33:06;;;;;;;18.35;12.95;;;14.20;99.90;;;;;;5120188;27;20050;-67
2023/09/01 07:35:32;;;;;;;14.50;12.32;;;14.20;99.90;;;;;;5106460;28;20044;-66
2023/09/01 07:37:58;;;;;;;15.68;12.63;;;14.30;99.90;;;;;;5093943;27;20252;-65
2023/09/01 07:40:24;;;;;;;18.08;12.45;;;14.30;99.90;;;;;;5114053;27;20080;-67
2023/09/01 07:42:50;;;;;;;14.57;11.80;;;14.30;99.90;;;;;;5117753;27;20039;-67
2023/09/01 07:45:15;;;;;;;15.43;12.10;;;14.30;99.90;;;;;;5112269;27;20043;-65
2023/09/01 07:47:42;;;;;;;16.27;11.90;;;14.40;99.90;;;;;;5110307;28;20040;-66
2023/09/01 07:50:08;;;;;;;14.48;12.88;;;14.50;99.90;;;;;;5107703;27;20051;-65
2023/09/01 07:52:34;;;;;;;18.83;12.75;;;14.50;99.90;;;;;;5129097;27;20058;-66
2023/09/01 07:55:00;;;;;;;15.25;12.60;;;14.60;99.90;;;;;;5120333;27;20406;-68
2023/09/01 07:57:25;;;;;;;16.83;12.82;;;14.60;99.90;;;;;;5111526;27;20051;-66
2023/09/01 07:59:51;;;;;;;17.95;13.70;;;14.70;99.90;;;;;;5110606;28;20051;-65
2023/09/01 08:02:16;;;;;;;16.02;12.00;;;14.80;99.90;;;;;;5110916;27;20035;-66
2023/09/01 08:04:43;;;;;;;14.82;12.43;;;14.90;99.90;;;;;;5110657;27;20083;-65
2023/09/01 08:07:08;;;;;;;18.65;12.52;;;15.00;99.90;;;;;;5110822;27;20043;-67
2023/09/01 08:09:34;;;;;;;16.80;13.05;;;15.10;99.90;;;;;;5126810;27;20035;-65
2023/09/01 08:11:59;;;;;;;14.82;12.38;;;15.20;99.90;;;;;;5096469;27;20055;-66
2023/09/01 08:14:25;;;;;;;17.05;12.82;;;15.20;99.90;;;;;;5123260;27;20062;-68
2023/09/01 08:16:51;;;;;;;15.00;12.45;;;15.30;99.90;;;;;;5132100;27;20042;-66
2023/09/01 08:19:16;;;;;;;15.88;11.95;;;15.40;99.90;;;;;;5120097;27;20047;-67
2023/09/01 08:21:42;;;;;;;15.02;12.43;;;15.40;99.90;;;;;;5113472;27;20027;-67
2023/09/01 08:24:08;;;;;;;15.20;11.50;;;15.50;99.90;;;;;;5112708;27;20054;-68
2023/09/01 08:26:33;;;;;;;17.42;12.68;;;15.60;99.90;;;;;;5145492;27;20057;-65
2023/09/01 08:28:59;;;;;;;15.52;12.38;;;15.70;99.90;;;;;;5130678;27;20054;-66
2023/09/01 08:31:25;;;;;;;15.95;11.85;;;15.80;99.90;;;;;;5129843;27;20062;-67
2023/09/01 08:33:51;;;;;;;15.35;11.43;;;15.90;99.90;;;;;;5117565;27;20112;-65
2023/09/01 08:36:17;;;;;;;17.35;11.20;;;15.90;99.90;;;;;;5112926;27;20082;-67
2023/09/01 08:38:43;;;;;;;15.80;10.48;;;16.10;99.90;;;;;;5116073;27;20462;-65
2023/09/01 08:41:09;;;;;;;14.20;10.00;;;16.20;99.90;;;;;;5116095;27;20067;-67
2023/09/01 08:43:38;;;;;;;14.25;10.60;;;16.30;99.90;;;;;;5096526;27;20122;-66
2023/09/01 08:46:04;;;;;;;16.73;9.98;;;16.40;99.90;;;;;;5117631;27;20039;-64
2023/09/01 08:48:34;;;;;;;17.85;9.88;;;16.40;99.90;;;;;;5136038;27;20096;-66
2023/09/01 08:51:03;;;;;;;16.38;9.88;;;16.50;99.90;;;;;;5115973;27;20033;-67
2023/09/01 08:53:28;;;;;;;16.30;9.18;;;16.50;99.90;;;;;;5149717;27;20034;-65
2023/09/01 08:55:55;;;;;;;17.63;10.30;;;16.60;99.90;;;;;;5113328;27;20050;-67
2023/09/01 08:58:21;;;;;;;14.00;9.30;;;16.70;99.90;;;;;;5115429;27;20031;-65
2023/09/01 09:00:48;;;;;;;14.73;9.98;;;16.80;99.90;;;;;;5112175;27;20104;-67
2023/09/01 09:03:16;;;;;;;13.55;8.63;;;16.90;99.90;;;;;;5116285;27;20078;-66
2023/09/01 09:05:43;;;;;;;16.08;7.95;;;16.90;99.90;;;;;;5114025;27;20053;-65
2023/09/01 09:08:09;;;;;;;13.13;9.07;;;17.00;99.90;;;;;;5113992;27;20039;-66
2023/09/01 09:10:43;;;;;;;16.85;8.52;;;17.10;99.90;;;;;;5115621;27;20069;-66
2023/09/01 09:13:24;;;;;;;13.15;8.77;;;17.20;99.90;;;;;;5116610;27;20126;-70
2023/09/01 09:16:12;;;;;;;12.98;9.35;;;17.40;99.90;;;;;;5098351;27;20063;-65
2023/09/01 09:18:40;;;;;;;16.23;9.68;;;17.60;99.90;;;;;;5097651;27;20408;-67
2023/09/01 09:21:26;;;;;;;14.45;9.95;;;17.80;99.90;;;;;;5112823;28;20501;-67
2023/09/01 09:23:53;;;;;;;14.07;7.07;;;18.00;99.90;;;;;;5119457;27;20549;-66
2023/09/01 09:26:26;;;;;;;10.75;6.45;;;18.10;99.90;;;;;;5122560;27;20053;-67
2023/09/01 09:28:52;;;;;;;12.43;7.28;;;18.00;99.90;;;;;;5136194;27;20035;-67
2023/09/01 09:31:17;;;;;;;14.15;7.28;;;17.90;99.90;;;;;;5112136;28;20053;-67
2023/09/01 09:33:44;;;;;;;12.40;8.23;;;17.90;99.90;;;;;;5122832;27;20043;-67
2023/09/01 09:36:10;;;;;;;12.80;7.97;;;17.90;99.90;;;;;;5113021;28;20035;-67
2023/09/01 09:38:43;;;;;;;15.88;7.90;;;18.00;99.90;;;;;;5112765;27;20120;-67
2023/09/01 09:41:09;;;;;;;15.73;7.90;;;17.90;99.90;;;;;;5115787;27;20495;-67
2023/09/01 09:43:46;;;;;;;13.48;7.80;;;17.90;99.90;;;;;;5115538;27;20056;-68
2023/09/01 09:46:13;;;;;;;13.95;7.95;;;17.90;99.90;;;;;;5132334;27;20453;-66
2023/09/01 09:48:39;;;;;;;8.57;6.35;;;17.90;99.90;;;;;;5130504;27;20043;-66
2023/09/01 09:51:09;;;;;;;13.02;6.57;;;17.80;99.90;;;;;;5115221;27;20035;-66
2023/09/01 09:53:37;;;;;;;13.50;7.30;;;17.80;99.90;;;;;;5135641;27;20046;-66
2023/09/01 09:56:32;;;;;;;10.85;6.50;;;17.80;99.90;;;;;;5122784;27;20397;-67
2023/09/01 09:59:05;;;;;;;13.90;7.88;;;17.80;99.90;;;;;;5117278;27;20092;-65
2023/09/01 10:01:37;;;;;;;13.20;7.82;;;17.70;99.90;;;;;;5137238;27;20511;-65
2023/09/01 10:04:07;;;;;;;12.50;6.38;;;17.70;99.90;;;;;;5124308;27;20071;-64
2023/09/01 10:06:36;;;;;;;11.02;6.18;;;17.70;99.90;;;;;;5102676;27;20401;-67
2023/09/01 10:09:07;;;;;;;14.48;6.40;;;17.60;99.90;;;;;;5117679;27;20051;-67
2023/09/01 10:11:33;;;;;;;11.95;6.10;;;17.60;99.90;;;;;;5124346;27;20405;-66
2023/09/01 10:14:00;;;;;;;11.60;5.82;;;17.50;99.90;;;;;;5125501;27;20051;-66
2023/09/01 10:16:26;;;;;;;9.23;5.88;;;17.50;99.90;;;;;;5120110;27;20047;-66
2023/09/01 10:18:53;;;;;;;15.02;6.82;;;17.50;99.90;;;;;;5123490;27;20454;-66
2023/09/01 10:21:20;;;;;;;11.30;6.35;;;17.60;99.90;;;;;;5130543;27;20458;-69
2023/09/01 10:23:47;;;;;;;9.63;5.43;;;17.60;99.90;;;;;;5128826;27;20121;-66
2023/09/01 10:26:24;;;;;;;10.27;5.60;;;17.50;99.90;;;;;;5116462;27;20541;-66
2023/09/01 10:29:01;;;;;;;10.20;5.13;;;17.50;99.90;;;;;;5115719;27;20051;-66
2023/09/01 10:31:28;;;;;;;7.05;4.43;;;17.50;99.90;;;;;;5120991;27;20039;-66
2023/09/01 10:34:12;;;;;;;7.57;3.63;;;17.50;99.90;;;;;;5117788;27;20087;-66
2023/09/01 10:36:58;;;;;;;10.15;4.00;;;17.40;99.90;;;;;;5121900;27;20050;-66
2023/09/01 10:39:30;;;;;;;12.82;3.80;;;17.50;99.90;;;;;;5126443;27;20482;-66
2023/09/01 10:42:00;;;;;;;9.32;4.18;;;17.40;99.90;;;;;;5134272;27;20088;-68
2023/09/01 10:44:42;;;;;;;9.00;4.38;;;17.40;99.90;;;;;;5117588;27;20058;-66
2023/09/01 10:47:31;;;;;;;;;;;17.40;99.90;;;;;;5129358;27;20039;-67
2023/09/01 10:50:06;;;;;;;7.32;3.90;;;17.40;99.90;;;;;;5035542;28;20387;-67
2023/09/01 10:52:32;;;;;;;9.95;4.00;;;17.40;99.90;;;;;;5019746;28;20044;-67
2023/09/01 10:55:02;;;;;;;9.13;4.10;;;17.40;99.90;;;;;;5019777;28;20060;-68
2023/09/01 10:57:43;;;;;;;8.25;4.40;;;17.50;99.90;;;;;;5013812;28;20041;-68
2023/09/01 11:00:29;;;;;;;10.63;4.32;;;17.50;99.90;;;;;;5020678;28;20041;-66
2023/09/01 11:03:37;;;;;;;9.63;4.65;;;17.50;99.90;;;;;;5017903;28;20041;-67
2023/09/01 11:06:03;;;;;;;9.65;5.00;;;17.60;99.90;;;;;;5021142;28;20048;-66
2023/09/01 11:08:30;;;;;;;10.00;5.20;;;17.50;99.90;;;;;;5025167;28;20052;-67
2023/09/01 11:11:06;;;;;;;8.82;5.75;;;17.50;99.90;;;;;;5024003;28;20068;-67
2023/09/01 11:13:32;;;;;;;12.43;5.53;;;17.60;99.90;;;;;;5033610;28;20445;-65
2023/09/01 11:16:06;;;;;;;8.35;5.10;;;17.60;99.90;;;;;;5031996;28;20052;-67
2023/09/01 11:18:32;;;;;;;8.75;4.93;;;17.60;99.90;;;;;;5013696;28;20453;-67
2023/09/01 11:21:00;;;;;;;9.32;5.68;;;17.60;99.90;;;;;;5027252;28;20064;-67
2023/09/01 11:23:27;;;;;;;10.75;5.35;;;17.60;99.90;;;;;;5013917;28;20447;-67
2023/09/01 11:25:57;;;;;;;10.25;5.28;;;17.70;99.90;;;;;;5051445;27;20420;-66
2023/09/01 11:28:25;;;;;;;12.25;6.18;;;17.90;99.90;;;;;;5125381;27;20035;-66
2023/09/01 11:30:56;;;;;;;9.10;6.03;;;18.00;99.90;;;;;;5142175;27;20131;-66
2023/09/01 11:33:23;;;;;;;10.75;6.10;;;18.10;99.90;;;;;;5137867;27;20039;-66
2023/09/01 11:35:49;;;;;;;13.68;6.72;;;18.20;99.90;;;;;;5120008;27;20126;-66
2023/09/01 11:38:19;;;;;;;9.75;5.65;;;18.10;99.90;;;;;;5120612;27;20086;-65
2023/09/01 11:40:50;;;;;;;10.07;5.72;;;18.10;99.90;;;;;;5097598;27;20050;-65
2023/09/01 11:43:16;;;;;;;7.93;5.63;;;18.00;99.90;;;;;;5120714;27;20041;-66
2023/09/01 11:45:49;;;;;;;7.10;4.47;;;18.10;99.90;;;;;;5122210;27;20454;-66
2023/09/01 11:48:22;;;;;;;9.07;5.22;;;18.10;99.90;;;;;;5115567;27;20062;-67
2023/09/01 11:50:48;;;;;;;10.48;5.47;;;18.10;99.90;;;;;;5126985;27;20043;-66
2023/09/01 11:53:24;;;;;;;6.85;4.07;;;18.10;99.90;;;;;;5134611;27;20038;-67
2023/09/01 11:55:50;;;;;;;8.63;4.45;;;18.20;99.90;;;;;;5130196;27;20091;-66
2023/09/01 11:58:16;;;;;;;8.73;4.53;;;18.20;99.90;;;;;;5133470;27;20117;-67
2023/09/01 12:00:42;;;;;;;10.13;4.20;;;18.20;99.90;;;;;;5127343;27;20564;-67
2023/09/01 12:03:08;;;;;;;9.88;4.05;;;18.20;99.90;;;;;;5115458;27;20039;-67
2023/09/01 12:05:39;;;;;;;9.93;4.20;;;18.30;99.90;;;;;;5113857;27;20038;-66
2023/09/01 12:08:07;;;;;;;7.93;3.65;;;18.30;99.90;;;;;;5116281;27;20569;-66
2023/09/01 12:10:33;;;;;;;7.50;3.70;;;18.30;99.90;;;;;;5117498;27;20527;-65
2023/09/01 12:13:03;;;;;;;7.20;3.63;;;18.40;99.90;;;;;;5118045;27;20043;-67
2023/09/01 12:15:28;;;;;;;7.88;4.20;;;18.40;99.90;;;;;;5129746;27;20115;-66
2023/09/01 12:17:54;;;;;;;6.75;3.30;;;18.40;99.90;;;;;;5118323;27;20047;-66
2023/09/01 12:20:20;;;;;;;5.65;3.58;;;18.50;99.90;;;;;;5114431;27;20047;-67
2023/09/01 12:22:45;;;;;;;6.10;3.40;;;18.50;99.90;;;;;;5115888;27;20042;-67
2023/09/01 12:25:11;;;;;;;8.02;4.25;;;18.50;99.90;;;;;;5114183;27;20089;-66
2023/09/01 12:27:36;;;;;;;7.47;4.07;;;18.50;99.90;;;;;;5117979;27;20058;-66
2023/09/01 12:30:03;;;;;;;8.57;4.20;;;18.50;99.90;;;;;;5106049;27;20047;-65
2023/09/01 12:32:29;;;;;;;7.20;4.00;;;18.50;99.90;;;;;;5132291;27;20405;-67
2023/09/01 12:34:55;;;;;;;6.85;4.07;;;18.50;99.90;;;;;;5134462;27;20047;-65
2023/09/01 12:37:20;;;;;;;9.75;4.00;;;18.60;99.90;;;;;;5116126;27;20039;-66
2023/09/01 12:39:46;;;;;;;7.20;4.00;;;18.50;99.90;;;;;;5113227;27;20050;-65
2023/09/01 12:42:12;;;;;;;8.98;4.40;;;18.50;99.90;;;;;;5117392;27;20035;-65
2023/09/01 12:44:37;;;;;;;8.52;3.83;;;18.60;99.90;;;;;;5096272;27;20051;-66